Time;durP1;ratioP1;P1;durP2;ratioP2;P2;SDS_P1;SDS_P2;PMS_P1;PMS_P2;Temp;Humidity;BMP_temperature;BMP_pressure;BME280_temperature;BME280_humidity;BME280_pressure;Samples;Min_cycle;Max_cycle;Signal;HPM_P1;HPM_P2
2023/01/07 00:01:49;;;;;;;18.85;6.70;;;;;;;;;;5094485;28;20051;-64
2023/01/07 00:04:16;;;;;;;18.15;6.25;;;;;;;;;;5094403;28;20045;-64
2023/01/07 00:06:43;;;;;;;17.08;5.75;;;;;;;;;;5094298;28;20048;-63
2023/01/07 00:09:15;;;;;;;16.48;5.65;;;;;;;;;;5094204;28;20558;-63
2023/01/07 00:11:41;;;;;;;19.30;5.90;;;;;;;;;;5093524;28;20450;-64
2023/01/07 00:14:08;;;;;;;20.13;7.10;;;;;;;;;;5094278;28;20052;-64
2023/01/07 00:16:35;;;;;;;17.42;5.63;;;;;;;;;;5094266;28;20399;-64
2023/01/07 00:19:03;;;;;;;23.20;6.85;;;;;;;;;;5092775;28;20044;-63
2023/01/07 00:21:29;;;;;;;23.90;7.35;;;;;;;;;;5093218;28;20499;-63
2023/01/07 00:23:57;;;;;;;25.98;6.50;;;;;;;;;;5093864;28;20052;-64
2023/01/07 00:26:25;;;;;;;19.25;7.80;;;;;;;;;;5094029;28;20075;-64
2023/01/07 00:28:52;;;;;;;16.15;5.60;;;;;;;;;;5094075;28;20127;-64
2023/01/07 00:31:20;;;;;;;12.68;6.05;;;;;;;;;;5093979;28;20044;-64
2023/01/07 00:36:17;;;;;;;19.98;6.78;;;;;;;;;;5093630;28;20048;-63
2023/01/07 00:38:43;;;;;;;21.38;5.72;;;;;;;;;;5093803;28;20048;-63
2023/01/07 00:41:09;;;;;;;17.55;6.28;;;;;;;;;;5093637;28;20044;-64
2023/01/07 00:43:36;;;;;;;20.20;5.90;;;;;;;;;;5093753;28;20115;-63
2023/01/07 00:46:02;;;;;;;17.75;6.05;;;;;;;;;;5093402;28;20570;-64
2023/01/07 00:48:29;;;;;;;19.38;5.38;;;;;;;;;;5093683;28;20058;-63
2023/01/07 00:50:55;;;;;;;20.75;6.50;;;;;;;;;;5093629;28;20071;-63
2023/01/07 00:53:22;;;;;;;20.63;7.07;;;;;;;;;;5093255;28;20518;-63
2023/01/07 00:55:48;;;;;;;15.05;6.07;;;;;;;;;;5093747;28;20063;-63
2023/01/07 00:58:24;;;;;;;15.32;5.70;;;;;;;;;;5093290;28;20048;-63
2023/01/07 01:00:55;;;;;;;17.77;5.78;;;;;;;;;;5093259;28;20080;-63
2023/01/07 01:03:21;;;;;;;24.40;6.78;;;;;;;;;;5093114;28;20052;-63
2023/01/07 01:05:48;;;;;;;16.33;5.65;;;;;;;;;;5093208;28;20044;-63
2023/01/07 01:08:16;;;;;;;17.65;6.00;;;;;;;;;;5093355;28;20074;-63
2023/01/07 01:10:46;;;;;;;18.00;5.70;;;;;;;;;;5093224;28;20130;-63
2023/01/07 01:13:14;;;;;;;17.17;5.55;;;;;;;;;;5093161;28;20127;-63
2023/01/07 01:15:44;;;;;;;22.50;6.00;;;;;;;;;;5093081;28;20140;-63
2023/01/07 01:18:10;;;;;;;21.88;6.97;;;;;;;;;;5092690;28;20054;-64
2023/01/07 01:20:37;;;;;;;24.23;5.88;;;;;;;;;;5092794;28;20097;-64
2023/01/07 01:23:04;;;;;;;21.35;6.28;;;;;;;;;;5092454;28;20480;-63
2023/01/07 01:25:30;;;;;;;17.98;5.43;;;;;;;;;;5092639;28;20051;-63
2023/01/07 01:27:57;;;;;;;14.57;5.35;;;;;;;;;;5093106;28;20191;-63
2023/01/07 01:30:23;;;;;;;17.50;5.25;;;;;;;;;;5093139;28;20052;-63
2023/01/07 01:32:49;;;;;;;19.65;6.30;;;;;;;;;;5092594;28;20059;-63
2023/01/07 01:35:16;;;;;;;16.17;5.60;;;;;;;;;;5092751;28;20054;-63
2023/01/07 01:37:42;;;;;;;15.88;5.32;;;;;;;;;;5092644;28;20131;-63
2023/01/07 01:40:09;;;;;;;23.15;7.40;;;;;;;;;;5092902;28;20051;-64
2023/01/07 01:42:36;;;;;;;18.98;6.57;;;;;;;;;;5092419;28;20052;-63
2023/01/07 01:45:03;;;;;;;14.73;4.68;;;;;;;;;;5092277;28;20059;-64
2023/01/07 01:47:29;;;;;;;18.55;5.75;;;;;;;;;;5091302;28;20054;-62
2023/01/07 01:50:14;;;;;;;18.48;5.97;;;;;;;;;;5092477;28;20052;-62
2023/01/07 01:52:47;;;;;;;13.55;4.70;;;;;;;;;;5092246;28;20050;-62
2023/01/07 01:55:16;;;;;;;15.73;4.50;;;;;;;;;;5092193;28;20088;-62
2023/01/07 01:57:43;;;;;;;8.82;4.13;;;;;;;;;;5092112;28;20044;-63
2023/01/07 02:00:10;;;;;;;13.50;3.97;;;;;;;;;;5092334;28;20054;-64
2023/01/07 02:02:42;;;;;;;14.20;4.32;;;;;;;;;;5092404;28;20631;-63
2023/01/07 02:05:09;;;;;;;15.68;4.63;;;;;;;;;;5092190;28;20103;-62
2023/01/07 02:07:35;;;;;;;16.63;4.38;;;;;;;;;;5077910;28;20555;-62
2023/01/07 02:10:09;;;;;;;13.73;4.22;;;;;;;;;;5091909;28;20063;-63
2023/01/07 02:12:45;;;;;;;12.80;4.40;;;;;;;;;;5091813;28;20048;-62
2023/01/07 02:15:32;;;;;;;18.50;5.70;;;;;;;;;;5092261;28;20131;-62
2023/01/07 02:18:14;;;;;;;14.18;4.47;;;;;;;;;;5091718;28;20085;-62
2023/01/07 02:20:46;;;;;;;20.05;6.00;;;;;;;;;;5091856;28;20431;-62
2023/01/07 02:23:31;;;;;;;18.85;4.85;;;;;;;;;;5092062;28;20042;-62
2023/01/07 02:26:01;;;;;;;14.07;5.32;;;;;;;;;;5091944;28;20044;-62
2023/01/07 02:28:33;;;;;;;24.55;5.93;;;;;;;;;;5091767;28;20071;-62
2023/01/07 02:31:15;;;;;;;17.40;4.80;;;;;;;;;;5091959;28;20054;-62
2023/01/07 02:33:41;;;;;;;15.90;5.43;;;;;;;;;;5091596;28;20465;-62
2023/01/07 02:36:13;;;;;;;21.50;6.30;;;;;;;;;;5097324;28;20054;-62
2023/01/07 02:38:58;;;;;;;16.92;5.13;;;;;;;;;;5098473;28;20479;-62
2023/01/07 02:41:31;;;;;;;23.75;6.30;;;;;;;;;;5098348;28;20130;-62
2023/01/07 02:44:15;;;;;;;22.48;6.05;;;;;;;;;;5099172;28;20056;-62
2023/01/07 02:46:49;;;;;;;16.27;5.03;;;;;;;;;;5098607;28;20130;-62
2023/01/07 02:49:16;;;;;;;24.10;7.10;;;;;;;;;;5098501;28;20126;-62
2023/01/07 02:51:43;;;;;;;19.92;7.13;;;;;;;;;;5098283;28;20562;-62
2023/01/07 02:54:14;;;;;;;29.73;6.78;;;;;;;;;;5098288;28;20047;-62
2023/01/07 02:56:59;;;;;;;22.65;6.63;;;;;;;;;;5098477;28;20485;-62
2023/01/07 02:59:34;;;;;;;28.00;6.10;;;;;;;;;;5098236;28;20058;-62
2023/01/07 03:02:17;;;;;;;16.15;5.72;;;;;;;;;;5098575;28;20066;-62
2023/01/07 03:04:46;;;;;;;16.92;5.55;;;;;;;;;;5098467;28;20411;-62
2023/01/07 03:07:16;;;;;;;17.27;6.22;;;;;;;;;;5098197;28;20058;-62
2023/01/07 03:10:01;;;;;;;13.18;5.03;;;;;;;;;;5098138;28;20048;-62
2023/01/07 03:12:27;;;;;;;19.95;5.90;;;;;;;;;;5097961;28;20047;-62
2023/01/07 03:15:10;;;;;;;15.05;6.25;;;;;;;;;;5098306;28;20062;-62
2023/01/07 03:17:40;;;;;;;19.05;5.82;;;;;;;;;;5097942;28;20071;-62
2023/01/07 03:20:08;;;;;;;17.98;5.82;;;;;;;;;;5098079;28;20054;-62
2023/01/07 03:22:35;;;;;;;16.27;6.00;;;;;;;;;;5098137;28;20052;-63
2023/01/07 03:25:02;;;;;;;20.67;6.70;;;;;;;;;;5098044;28;20090;-62
2023/01/07 03:27:31;;;;;;;18.03;6.37;;;;;;;;;;5097932;28;20078;-62
2023/01/07 03:29:59;;;;;;;17.42;6.00;;;;;;;;;;5097932;28;20479;-62
2023/01/07 03:32:31;;;;;;;18.42;5.72;;;;;;;;;;5097976;28;20095;-62
2023/01/07 03:34:57;;;;;;;18.55;6.43;;;;;;;;;;5097842;28;20393;-62
2023/01/07 03:37:25;;;;;;;15.45;5.10;;;;;;;;;;5098389;28;20063;-62
2023/01/07 03:39:52;;;;;;;18.77;5.15;;;;;;;;;;5097756;28;20062;-62
2023/01/07 03:45:09;;;;;;;12.25;5.43;;;;;;;;;;5097714;28;20467;-62
2023/01/07 03:47:37;;;;;;;13.93;4.95;;;;;;;;;;5094332;28;20130;-62
2023/01/07 03:50:03;;;;;;;14.60;6.05;;;;;;;;;;5094594;28;20052;-63
2023/01/07 03:52:30;;;;;;;16.30;5.10;;;;;;;;;;5094429;28;20048;-62
2023/01/07 03:54:56;;;;;;;15.32;5.22;;;;;;;;;;5094809;28;20054;-64
2023/01/07 03:57:22;;;;;;;20.73;6.45;;;;;;;;;;5094521;28;20044;-63
2023/01/07 03:59:49;;;;;;;17.40;5.63;;;;;;;;;;5094397;28;20046;-63
2023/01/07 04:02:15;;;;;;;20.45;6.60;;;;;;;;;;5094649;28;20040;-63
2023/01/07 04:04:41;;;;;;;23.75;7.15;;;;;;;;;;5094895;28;20043;-63
2023/01/07 04:07:08;;;;;;;23.77;7.03;;;;;;;;;;5094142;28;20079;-63
2023/01/07 04:09:34;;;;;;;19.02;6.63;;;;;;;;;;5094393;28;20102;-63
2023/01/07 04:12:01;;;;;;;20.15;6.20;;;;;;;;;;5094431;28;20131;-63
2023/01/07 04:14:27;;;;;;;14.55;5.75;;;;;;;;;;5094238;28;20503;-63
2023/01/07 04:16:53;;;;;;;19.25;6.25;;;;;;;;;;5094101;28;20066;-63
2023/01/07 04:19:20;;;;;;;18.27;6.70;;;;;;;;;;5093864;28;20048;-63
2023/01/07 04:21:46;;;;;;;14.25;6.15;;;;;;;;;;5094175;28;20048;-62
2023/01/07 04:24:13;;;;;;;15.25;5.32;;;;;;;;;;5092797;28;20055;-63
2023/01/07 04:26:39;;;;;;;16.98;6.40;;;;;;;;;;5093793;28;20070;-63
2023/01/07 04:29:06;;;;;;;19.40;5.65;;;;;;;;;;5093854;28;20070;-62
2023/01/07 04:31:32;;;;;;;19.95;5.97;;;;;;;;;;5094040;28;20135;-62
2023/01/07 04:33:58;;;;;;;20.83;6.22;;;;;;;;;;5093465;28;20423;-62
2023/01/07 04:36:25;;;;;;;23.90;6.35;;;;;;;;;;5093675;28;20483;-63
2023/01/07 04:38:51;;;;;;;22.40;5.50;;;;;;;;;;5093478;28;20044;-63
2023/01/07 04:41:18;;;;;;;20.70;5.35;;;;;;;;;;5093740;28;20036;-63
2023/01/07 04:43:44;;;;;;;18.00;4.93;;;;;;;;;;5093730;28;20055;-63
2023/01/07 04:46:10;;;;;;;10.95;4.55;;;;;;;;;;5093705;28;20459;-63
2023/01/07 04:48:37;;;;;;;16.30;5.13;;;;;;;;;;5093732;28;20091;-63
2023/01/07 04:51:03;;;;;;;16.88;4.75;;;;;;;;;;5093917;28;20058;-62
2023/01/07 04:53:30;;;;;;;15.38;4.85;;;;;;;;;;5093797;28;20044;-62
2023/01/07 04:55:56;;;;;;;13.43;5.30;;;;;;;;;;5093765;28;20162;-62
2023/01/07 04:58:23;;;;;;;12.85;4.22;;;;;;;;;;5093061;28;20099;-61
2023/01/07 05:00:51;;;;;;;15.77;4.97;;;;;;;;;;5093531;28;20051;-62
2023/01/07 05:03:18;;;;;;;;;;;;;;;;;;5093716;28;20050;-62
2023/01/07 05:05:45;;;;;;;;;;;;;;;;;;5093494;28;20343;-62
2023/01/07 05:08:11;;;;;;;18.38;4.38;;;;;;;;;;5093496;28;19934;-62
2023/01/07 05:10:38;;;;;;;13.35;5.43;;;;;;;;;;5093113;28;20044;-62
2023/01/07 05:13:04;;;;;;;17.55;4.72;;;;;;;;;;5093440;28;20055;-62
2023/01/07 05:15:32;;;;;;;;;;;;;;;;;;5093618;28;20048;-62
2023/01/07 05:17:58;;;;;;;16.40;4.35;;;;;;;;;;5093106;28;19920;-62
2023/01/07 05:20:25;;;;;;;11.63;3.92;;;;;;;;;;5092987;28;20047;-62
2023/01/07 05:22:51;;;;;;;19.73;4.50;;;;;;;;;;5092953;28;20137;-62
2023/01/07 05:25:17;;;;;;;15.52;5.22;;;;;;;;;;5092669;28;20048;-62
2023/01/07 05:27:44;;;;;;;14.00;4.20;;;;;;;;;;5092878;28;20080;-62
2023/01/07 05:30:10;;;;;;;28.48;6.00;;;;;;;;;;5092495;28;20496;-62
2023/01/07 05:32:36;;;;;;;23.98;5.07;;;;;;;;;;5092399;28;20044;-61
2023/01/07 05:35:03;;;;;;;16.30;4.45;;;;;;;;;;5092888;28;20186;-61
2023/01/07 05:37:30;;;;;;;18.95;4.60;;;;;;;;;;5092713;28;20138;-60
2023/01/07 05:39:56;;;;;;;16.52;4.70;;;;;;;;;;5092503;28;20055;-60
2023/01/07 05:42:22;;;;;;;21.45;5.00;;;;;;;;;;5092242;28;20127;-60
2023/01/07 05:44:49;;;;;;;13.82;4.57;;;;;;;;;;5092320;28;20058;-81
2023/01/07 05:47:15;;;;;;;15.40;3.78;;;;;;;;;;5091057;28;20083;-79
2023/01/07 05:49:41;;;;;;;19.23;4.00;;;;;;;;;;5092380;28;20410;-87
2023/01/07 05:52:08;;;;;;;22.77;4.30;;;;;;;;;;5091280;28;20185;-86
2023/01/07 05:54:35;;;;;;;19.40;4.57;;;;;;;;;;5091353;28;20068;-93
2023/01/07 05:57:02;;;;;;;19.95;5.13;;;;;;;;;;5091235;28;20406;-87
2023/01/07 05:59:28;;;;;;;19.60;4.88;;;;;;;;;;5093092;28;20044;-96
2023/01/07 06:01:57;;;;;;;18.05;4.53;;;;;;;;;;5092226;28;20044;-96
2023/01/07 06:04:33;;;;;;;19.52;4.88;;;;;;;;;;5093460;28;20035;-94
2023/01/07 06:10:46;;;;;;;15.93;4.00;;;;;;;;;;5026281;28;20590;-96
2023/01/07 06:13:37;;;;;;;17.55;4.38;;;;;;;;;;5043538;28;20173;-92
2023/01/07 06:16:05;;;;;;;14.82;3.75;;;;;;;;;;5086919;28;20076;-90
2023/01/07 06:18:31;;;;;;;;;;;;;;;;;;5108337;28;20063;-88
2023/01/07 06:20:58;;;;;;;20.85;4.25;;;;;;;;;;5092080;28;19920;-82
2023/01/07 06:23:24;;;;;;;12.80;4.35;;;;;;;;;;5091884;28;20043;-81
2023/01/07 06:25:50;;;;;;;19.38;5.03;;;;;;;;;;5090987;28;20048;-80
2023/01/07 06:28:17;;;;;;;15.43;4.10;;;;;;;;;;5092194;28;20135;-81
2023/01/07 06:30:44;;;;;;;15.45;4.88;;;;;;;;;;5092129;28;20406;-81
2023/01/07 06:33:11;;;;;;;12.35;3.78;;;;;;;;;;5091782;28;20064;-81
2023/01/07 06:35:38;;;;;;;11.75;3.53;;;;;;;;;;5090780;28;20040;-82
2023/01/07 06:38:04;;;;;;;16.10;4.05;;;;;;;;;;5090410;28;20415;-84
2023/01/07 06:40:31;;;;;;;15.38;3.65;;;;;;;;;;5091674;28;20130;-85
2023/01/07 06:42:57;;;;;;;12.30;4.15;;;;;;;;;;5092202;28;20054;-86
2023/01/07 06:45:24;;;;;;;17.90;4.60;;;;;;;;;;5090211;28;20046;-88
2023/01/07 06:47:50;;;;;;;17.60;4.13;;;;;;;;;;5090141;28;20055;-88
2023/01/07 06:50:17;;;;;;;14.50;3.58;;;;;;;;;;5091143;28;20074;-90
2023/01/07 06:52:43;;;;;;;14.88;3.85;;;;;;;;;;5091435;28;20052;-90
2023/01/07 06:55:10;;;;;;;12.77;4.03;;;;;;;;;;5090696;28;20044;-84
2023/01/07 06:57:36;;;;;;;14.52;3.67;;;;;;;;;;5090508;28;20052;-84
2023/01/07 07:00:03;;;;;;;15.48;4.05;;;;;;;;;;5090847;28;20051;-82
2023/01/07 07:02:30;;;;;;;11.88;3.30;;;;;;;;;;5091036;28;20046;-81
2023/01/07 07:04:56;;;;;;;11.50;3.35;;;;;;;;;;5089498;28;20101;-80
2023/01/07 07:07:23;;;;;;;8.90;2.75;;;;;;;;;;5090877;28;20051;-80
2023/01/07 07:09:49;;;;;;;9.98;2.90;;;;;;;;;;5090864;28;20078;-79
2023/01/07 07:12:16;;;;;;;12.10;3.60;;;;;;;;;;5089173;28;20392;-78
2023/01/07 07:14:42;;;;;;;12.20;3.10;;;;;;;;;;5091035;28;20575;-78
2023/01/07 07:17:08;;;;;;;11.85;4.10;;;;;;;;;;5090529;28;20051;-78
2023/01/07 07:19:35;;;;;;;17.02;3.55;;;;;;;;;;5090544;28;20589;-77
2023/01/07 07:22:01;;;;;;;11.63;3.85;;;;;;;;;;5091608;28;20122;-78
2023/01/07 07:24:30;;;;;;;13.10;3.90;;;;;;;;;;5094626;28;20101;-75
2023/01/07 07:26:56;;;;;;;15.10;3.78;;;;;;;;;;5094686;28;20071;-76
2023/01/07 07:29:22;;;;;;;17.02;4.60;;;;;;;;;;5094356;28;20052;-76
2023/01/07 07:31:49;;;;;;;17.15;4.90;;;;;;;;;;5094893;28;20395;-74
2023/01/07 07:34:15;;;;;;;14.93;4.47;;;;;;;;;;5094005;28;20086;-75
2023/01/07 07:36:42;;;;;;;14.38;4.05;;;;;;;;;;5093538;28;20134;-75
2023/01/07 07:39:09;;;;;;;18.05;4.80;;;;;;;;;;5092169;28;20047;-74
2023/01/07 07:41:36;;;;;;;15.75;4.35;;;;;;;;;;5094352;28;20054;-77
2023/01/07 07:44:02;;;;;;;16.30;4.05;;;;;;;;;;5094232;28;20127;-76
2023/01/07 07:46:29;;;;;;;14.10;4.30;;;;;;;;;;5094094;28;20048;-77
2023/01/07 07:48:55;;;;;;;15.27;4.25;;;;;;;;;;5094062;28;20047;-76
2023/01/07 07:51:21;;;;;;;17.17;4.32;;;;;;;;;;5094091;28;20423;-76
2023/01/07 07:53:48;;;;;;;15.52;4.70;;;;;;;;;;5094240;28;20059;-75
2023/01/07 07:56:14;;;;;;;16.88;3.40;;;;;;;;;;5094205;28;20075;-73
2023/01/07 07:58:44;;;;;;;15.68;4.00;;;;;;;;;;5093785;28;20051;-73
2023/01/07 08:01:10;;;;;;;20.15;4.63;;;;;;;;;;5093569;28;20064;-73
2023/01/07 08:03:36;;;;;;;20.20;4.65;;;;;;;;;;5093265;28;20547;-72
2023/01/07 08:06:03;;;;;;;19.35;4.20;;;;;;;;;;5093609;28;20036;-71
2023/01/07 08:08:30;;;;;;;21.40;5.23;;;;;;;;;;5093615;28;20479;-71
2023/01/07 08:10:56;;;;;;;24.70;4.32;;;;;;;;;;5093883;28;20290;-71
2023/01/07 08:13:23;;;;;;;22.25;5.38;;;;;;;;;;5093727;28;20044;-70
2023/01/07 08:15:49;;;;;;;20.88;4.68;;;;;;;;;;5093257;28;20126;-69
2023/01/07 08:18:17;;;;;;;20.73;5.15;;;;;;;;;;5093053;28;20409;-69
2023/01/07 08:20:45;;;;;;;17.00;4.90;;;;;;;;;;5092892;28;20048;-69
2023/01/07 08:23:12;;;;;;;18.80;4.93;;;;;;;;;;5092953;28;20079;-69
2023/01/07 08:25:38;;;;;;;14.80;4.50;;;;;;;;;;5093322;28;20048;-70
2023/01/07 08:28:05;;;;;;;22.30;6.07;;;;;;;;;;5093541;28;20406;-70
2023/01/07 08:30:31;;;;;;;19.30;6.15;;;;;;;;;;5092863;28;20086;-76
2023/01/07 08:32:58;;;;;;;19.45;5.45;;;;;;;;;;5073125;28;20055;-81
2023/01/07 08:35:25;;;;;;;19.25;5.25;;;;;;;;;;5072461;28;20843;-83
2023/01/07 08:37:58;;;;;;;24.92;5.82;;;;;;;;;;5090976;28;20052;-82
2023/01/07 08:40:28;;;;;;;15.90;4.82;;;;;;;;;;5093250;28;20086;-90
2023/01/07 08:43:01;;;;;;;20.42;5.00;;;;;;;;;;5093994;28;20064;-91
2023/01/07 08:45:28;;;;;;;18.10;4.90;;;;;;;;;;5093270;28;20071;-88
2023/01/07 08:47:58;;;;;;;15.68;4.72;;;;;;;;;;5092936;28;20575;-91
2023/01/07 08:50:25;;;;;;;22.65;5.00;;;;;;;;;;5093219;28;20104;-93
2023/01/07 08:52:52;;;;;;;17.67;4.68;;;;;;;;;;5086916;28;20052;-89
2023/01/07 08:55:19;;;;;;;31.05;5.60;;;;;;;;;;5092459;28;20048;-92
2023/01/07 08:57:46;;;;;;;21.88;5.10;;;;;;;;;;5092616;28;20131;-93
2023/01/07 09:00:13;;;;;;;23.48;5.50;;;;;;;;;;5092764;28;20484;-93
2023/01/07 09:02:41;;;;;;;19.90;5.15;;;;;;;;;;5092786;28;20152;-86
2023/01/07 09:05:08;;;;;;;22.20;5.78;;;;;;;;;;5092483;28;20056;-85
2023/01/07 09:07:34;;;;;;;22.58;5.25;;;;;;;;;;5092905;28;20058;-82
2023/01/07 09:10:01;;;;;;;23.05;4.65;;;;;;;;;;5092366;28;20559;-85
2023/01/07 09:12:27;;;;;;;21.60;5.45;;;;;;;;;;5079900;28;20080;-89
2023/01/07 09:14:54;;;;;;;24.10;5.40;;;;;;;;;;5079057;28;20131;-88
2023/01/07 09:17:21;;;;;;;20.10;4.55;;;;;;;;;;5087160;28;20051;-85
2023/01/07 09:19:49;;;;;;;18.27;5.45;;;;;;;;;;5092529;28;20051;-84
2023/01/07 09:22:15;;;;;;;17.73;5.47;;;;;;;;;;5091966;28;20054;-83
2023/01/07 09:24:42;;;;;;;19.00;5.93;;;;;;;;;;5091302;28;20402;-84
2023/01/07 09:27:08;;;;;;;18.08;5.30;;;;;;;;;;5091976;28;20048;-83
2023/01/07 09:29:35;;;;;;;20.85;4.75;;;;;;;;;;5091759;28;20554;-82
2023/01/07 09:32:01;;;;;;;24.45;6.18;;;;;;;;;;5092145;28;20040;-82
2023/01/07 09:34:27;;;;;;;17.27;5.18;;;;;;;;;;5091370;28;20051;-81
2023/01/07 09:36:54;;;;;;;15.85;4.18;;;;;;;;;;5091616;28;20488;-81
2023/01/07 09:39:20;;;;;;;19.08;4.68;;;;;;;;;;5089830;28;20074;-80
2023/01/07 09:41:52;;;;;;;14.52;4.80;;;;;;;;;;5091591;28;20125;-81
2023/01/07 09:44:38;;;;;;;24.85;4.90;;;;;;;;;;5090722;28;20118;-81
2023/01/07 09:47:05;;;;;;;15.70;4.50;;;;;;;;;;5091723;28;20039;-81
2023/01/07 09:49:32;;;;;;;10.98;4.00;;;;;;;;;;5091446;28;20567;-83
2023/01/07 09:52:03;;;;;;;12.10;3.83;;;;;;;;;;5091620;28;20044;-82
2023/01/07 09:54:31;;;;;;;14.77;3.60;;;;;;;;;;5091553;28;20040;-84
2023/01/07 09:56:58;;;;;;;10.27;3.65;;;;;;;;;;5091434;28;20131;-84
2023/01/07 09:59:24;;;;;;;22.30;4.47;;;;;;;;;;5091627;28;20133;-83
2023/01/07 10:02:00;;;;;;;13.18;3.85;;;;;;;;;;5091782;28;20423;-83
2023/01/07 10:04:33;;;;;;;14.00;3.72;;;;;;;;;;5091287;28;20055;-83
2023/01/07 10:07:11;;;;;;;23.02;4.65;;;;;;;;;;5091432;28;20047;-85
2023/01/07 10:09:53;;;;;;;22.85;5.03;;;;;;;;;;5090940;28;20052;-85
2023/01/07 10:12:26;;;;;;;21.00;3.72;;;;;;;;;;5091200;28;20075;-86
2023/01/07 10:14:52;;;;;;;11.98;3.22;;;;;;;;;;5090318;28;20478;-84
2023/01/07 10:17:44;;;;;;;12.65;2.65;;;;;;;;;;5088476;28;20104;-84
2023/01/07 10:20:23;;;;;;;8.23;2.65;;;;;;;;;;5091174;28;20044;-84
2023/01/07 10:22:52;;;;;;;12.07;2.83;;;;;;;;;;5091397;28;20412;-83
2023/01/07 10:25:20;;;;;;;10.73;3.25;;;;;;;;;;5091547;28;20078;-83
2023/01/07 10:27:47;;;;;;;15.48;4.00;;;;;;;;;;5091321;28;20087;-83
2023/01/07 10:30:17;;;;;;;14.98;2.70;;;;;;;;;;5091673;28;20048;-83
2023/01/07 10:32:44;;;;;;;19.60;3.00;;;;;;;;;;5091193;28;20066;-83
2023/01/07 10:35:11;;;;;;;;;;;;;;;;;;5090212;28;20448;-86
2023/01/07 10:37:39;;;;;;;36.05;4.60;;;;;;;;;;5087852;28;19928;-82
2023/01/07 10:40:05;;;;;;;18.20;3.53;;;;;;;;;;5090043;28;20101;-81
2023/01/07 10:42:37;;;;;;;19.48;3.10;;;;;;;;;;5089956;28;20097;-83
2023/01/07 10:45:23;;;;;;;17.30;2.47;;;;;;;;;;5090090;28;20514;-84
2023/01/07 10:47:55;;;;;;;10.35;2.25;;;;;;;;;;5091560;28;20135;-85
2023/01/07 10:50:24;;;;;;;12.07;2.53;;;;;;;;;;5091115;28;20492;-84
2023/01/07 10:52:51;;;;;;;14.60;3.08;;;;;;;;;;5091583;28;20050;-84
2023/01/07 10:55:23;;;;;;;42.00;4.05;;;;;;;;;;5091224;28;20048;-82
2023/01/07 10:57:50;;;;;;;13.27;3.58;;;;;;;;;;5075778;28;20117;-80
2023/01/07 11:00:17;;;;;;;23.13;3.70;;;;;;;;;;5074659;28;20049;-79
2023/01/07 11:02:45;;;;;;;46.85;5.72;;;;;;;;;;5075093;28;20068;-79
2023/01/07 11:05:11;;;;;;;34.38;4.28;;;;;;;;;;5074881;28;20110;-79
2023/01/07 11:07:44;;;;;;;18.00;4.60;;;;;;;;;;5074891;28;20040;-79
2023/01/07 11:10:21;;;;;;;15.63;3.63;;;;;;;;;;5074798;28;20052;-79
2023/01/07 11:12:49;;;;;;;19.33;5.05;;;;;;;;;;5074573;28;20139;-79
2023/01/07 11:15:19;;;;;;;25.40;4.20;;;;;;;;;;5074457;28;20079;-79
2023/01/07 11:17:49;;;;;;;26.27;4.72;;;;;;;;;;5075086;28;20041;-79
2023/01/07 11:20:34;;;;;;;29.42;5.22;;;;;;;;;;5073325;28;20155;-79
2023/01/07 11:23:10;;;;;;;16.30;3.00;;;;;;;;;;5074544;28;20068;-79
2023/01/07 11:25:37;;;;;;;23.13;3.80;;;;;;;;;;5074394;28;20052;-78
2023/01/07 11:28:03;;;;;;;13.20;2.83;;;;;;;;;;5074216;28;20514;-77
2023/01/07 11:30:31;;;;;;;14.60;2.55;;;;;;;;;;5089990;28;20567;-75
2023/01/07 11:32:59;;;;;;;11.60;2.15;;;;;;;;;;5095002;28;20179;-75
2023/01/07 11:35:29;;;;;;;13.40;2.22;;;;;;;;;;5095106;28;20135;-74
2023/01/07 11:37:56;;;;;;;13.05;2.67;;;;;;;;;;5094850;28;20101;-75
2023/01/07 11:40:27;;;;;;;10.50;1.50;;;;;;;;;;5093778;28;20147;-75
2023/01/07 11:42:58;;;;;;;11.25;2.25;;;;;;;;;;5095048;28;20040;-74
2023/01/07 11:45:27;;;;;;;13.98;2.50;;;;;;;;;;5094741;28;20066;-74
2023/01/07 11:47:57;;;;;;;14.35;2.10;;;;;;;;;;5094789;28;20519;-75
2023/01/07 11:50:24;;;;;;;12.93;2.35;;;;;;;;;;5094842;28;20059;-75
2023/01/07 11:53:05;;;;;;;20.90;3.40;;;;;;;;;;5094691;28;20151;-75
2023/01/07 11:55:31;;;;;;;15.48;2.35;;;;;;;;;;5094602;28;20131;-75
2023/01/07 11:57:58;;;;;;;15.02;2.35;;;;;;;;;;5094642;28;20052;-75
2023/01/07 12:00:44;;;;;;;11.00;1.88;;;;;;;;;;5094515;28;20125;-75
2023/01/07 12:03:12;;;;;;;15.88;2.10;;;;;;;;;;5094440;28;20044;-75
2023/01/07 12:05:39;;;;;;;17.13;2.67;;;;;;;;;;5094549;28;20101;-74
2023/01/07 12:08:06;;;;;;;14.13;2.53;;;;;;;;;;5091845;28;20058;-75
2023/01/07 12:10:34;;;;;;;15.50;1.83;;;;;;;;;;5076749;28;20127;-76
2023/01/07 12:13:02;;;;;;;14.45;2.35;;;;;;;;;;5094185;28;20044;-75
2023/01/07 12:15:47;;;;;;;27.65;3.15;;;;;;;;;;5093084;28;20055;-75
2023/01/07 12:18:28;;;;;;;13.75;1.70;;;;;;;;;;5083692;28;20130;-75
2023/01/07 12:21:20;;;;;;;5.35;1.20;;;;;;;;;;5090986;28;20052;-75
2023/01/07 12:23:46;;;;;;;8.23;1.00;;;;;;;;;;5094033;28;20131;-75
2023/01/07 12:26:24;;;;;;;5.78;1.20;;;;;;;;;;5093949;28;20048;-74
2023/01/07 12:28:57;;;;;;;5.30;1.00;;;;;;;;;;5093738;28;20052;-74
2023/01/07 12:31:35;;;;;;;6.93;1.10;;;;;;;;;;5093444;28;20050;-75
2023/01/07 12:34:14;;;;;;;3.25;0.82;;;;;;;;;;5093127;28;20502;-74
2023/01/07 12:36:41;;;;;;;4.40;1.17;;;;;;;;;;5092363;28;20396;-74
2023/01/07 12:39:11;;;;;;;2.55;0.70;;;;;;;;;;5092630;28;20047;-75
2023/01/07 12:41:43;;;;;;;1.90;0.50;;;;;;;;;;5092750;28;20059;-73
2023/01/07 12:44:17;;;;;;;2.80;0.60;;;;;;;;;;5093333;28;20047;-74
2023/01/07 12:46:50;;;;;;;3.75;0.60;;;;;;;;;;5093293;28;20127;-74
2023/01/07 12:49:21;;;;;;;1.40;0.40;;;;;;;;;;5087698;28;20052;-72
2023/01/07 12:51:50;;;;;;;1.88;0.70;;;;;;;;;;5076544;28;20048;-72
2023/01/07 12:54:20;;;;;;;4.20;0.90;;;;;;;;;;5092607;28;20134;-72
2023/01/07 12:56:55;;;;;;;4.43;0.77;;;;;;;;;;5092172;28;20048;-72
2023/01/07 12:59:29;;;;;;;3.13;0.52;;;;;;;;;;5089210;28;20062;-72
2023/01/07 13:02:18;;;;;;;3.22;0.50;;;;;;;;;;5091893;28;20050;-73
2023/01/07 13:04:59;;;;;;;4.80;0.90;;;;;;;;;;5092235;28;20051;-72
2023/01/07 13:07:41;;;;;;;6.85;0.88;;;;;;;;;;5092464;28;20668;-73
2023/01/07 13:10:13;;;;;;;6.03;1.10;;;;;;;;;;5090089;28;20055;-73
2023/01/07 13:12:47;;;;;;;5.05;0.77;;;;;;;;;;5090327;28;20488;-74
2023/01/07 13:15:13;;;;;;;8.13;1.23;;;;;;;;;;5092422;28;20054;-76
2023/01/07 13:17:40;;;;;;;7.90;1.17;;;;;;;;;;5092612;28;20072;-74
2023/01/07 13:20:14;;;;;;;8.80;1.25;;;;;;;;;;5092322;28;20048;-73
2023/01/07 13:22:51;;;;;;;8.52;1.20;;;;;;;;;;5092124;28;20050;-73
2023/01/07 13:25:31;;;;;;;7.47;1.08;;;;;;;;;;5091178;28;20055;-73
2023/01/07 13:28:16;;;;;;;8.13;3.13;;;;;;;;;;5091813;28;20086;-73
2023/01/07 13:30:48;;;;;;;9.45;2.72;;;;;;;;;;5077372;28;20484;-73
2023/01/07 13:33:21;;;;;;;9.63;2.42;;;;;;;;;;5089413;28;20062;-73
2023/01/07 13:36:07;;;;;;;9.35;2.33;;;;;;;;;;5090626;28;20051;-73
2023/01/07 13:38:46;;;;;;;12.52;4.13;;;;;;;;;;5087124;28;20128;-72
2023/01/07 13:41:12;;;;;;;12.85;3.60;;;;;;;;;;5090528;28;20052;-72
2023/01/07 13:43:39;;;;;;;16.98;5.90;;;;;;;;;;5091103;28;20491;-73
2023/01/07 13:46:10;;;;;;;10.32;3.03;;;;;;;;;;5090669;28;20051;-72
2023/01/07 13:48:37;;;;;;;17.50;5.45;;;;;;;;;;5092530;28;20044;-72
2023/01/07 13:51:05;;;;;;;35.90;11.52;;;;;;;;;;5082054;28;20050;-72
2023/01/07 13:53:35;;;;;;;49.92;18.40;;;;;;;;;;5072999;28;20044;-72
2023/01/07 13:56:16;;;;;;;25.15;8.90;;;;;;;;;;5070202;28;20051;-72
2023/01/07 13:58:52;;;;;;;21.60;7.97;;;;;;;;;;5071352;28;20120;-72
2023/01/07 14:01:20;;;;;;;23.55;5.68;;;;;;;;;;5074211;28;20051;-72
2023/01/07 14:03:48;;;;;;;15.18;4.15;;;;;;;;;;5071684;28;20128;-72
2023/01/07 14:06:30;;;;;;;16.13;5.50;;;;;;;;;;5072031;28;20050;-72
2023/01/07 14:08:59;;;;;;;15.43;8.63;;;;;;;;;;5071586;28;20051;-71
2023/01/07 14:11:28;;;;;;;18.80;6.35;;;;;;;;;;5071155;28;20044;-72
2023/01/07 14:14:02;;;;;;;24.20;9.57;;;;;;;;;;5085196;28;20058;-72
2023/01/07 14:16:47;;;;;;;20.20;6.20;;;;;;;;;;5074015;28;20448;-72
2023/01/07 14:19:14;;;;;;;16.95;5.18;;;;;;;;;;5086786;28;20509;-72
2023/01/07 14:21:49;;;;;;;17.40;4.57;;;;;;;;;;5091593;28;20058;-73
2023/01/07 14:24:34;;;;;;;14.30;2.25;;;;;;;;;;5089836;28;20052;-73
2023/01/07 14:27:24;;;;;;;13.48;2.38;;;;;;;;;;5091820;28;20127;-73
2023/01/07 14:29:52;;;;;;;14.90;3.03;;;;;;;;;;5080906;28;20047;-72
2023/01/07 14:32:25;;;;;;;18.23;2.45;;;;;;;;;;5091463;28;20040;-72
2023/01/07 14:34:52;;;;;;;28.20;3.92;;;;;;;;;;5091872;28;20044;-72
2023/01/07 14:37:27;;;;;;;18.02;3.50;;;;;;;;;;5091817;28;20519;-72
2023/01/07 14:39:54;;;;;;;17.20;2.75;;;;;;;;;;5091636;28;20515;-72
2023/01/07 14:42:26;;;;;;;17.35;3.10;;;;;;;;;;5091433;28;20054;-72
2023/01/07 14:44:53;;;;;;;18.23;3.47;;;;;;;;;;5091858;28;20131;-72
2023/01/07 14:47:38;;;;;;;21.80;3.30;;;;;;;;;;5091327;28;20062;-72
2023/01/07 14:50:04;;;;;;;36.30;4.70;;;;;;;;;;5091474;28;20048;-75
2023/01/07 14:52:42;;;;;;;52.33;5.80;;;;;;;;;;5090688;28;20044;-77
2023/01/07 14:55:08;;;;;;;25.60;2.92;;;;;;;;;;5091342;28;20504;-75
2023/01/07 14:57:52;;;;;;;24.20;2.58;;;;;;;;;;5089570;28;20510;-77